Time;durP1;ratioP1;P1;durP2;ratioP2;P2;SDS_P1;SDS_P2;PMS_P1;PMS_P2;Temp;Humidity;BMP_temperature;BMP_pressure;BME280_temperature;BME280_humidity;BME280_pressure;Samples;Min_cycle;Max_cycle;Signal;HPM_P1;HPM_P2
2022/03/15 00:00:46;;;;;;;13.50;6.57;;;12.50;99.90;;;;;;6194705;23;20146;-96
2022/03/15 00:03:16;;;;;;;10.83;6.40;;;12.60;99.90;;;;;;6200655;23;20187;-93
2022/03/15 00:05:48;;;;;;;13.77;7.83;;;12.80;99.90;;;;;;6207529;23;20138;-91
2022/03/15 00:08:36;;;;;;;13.57;7.57;;;12.70;99.90;;;;;;6180105;23;20231;-93
2022/03/15 00:11:23;;;;;;;15.07;7.00;;;12.70;99.90;;;;;;6181137;23;20151;-96
2022/03/15 00:14:04;;;;;;;15.53;6.73;;;12.60;99.90;;;;;;6182746;23;20198;-94
2022/03/15 00:16:36;;;;;;;14.10;7.93;;;12.70;99.90;;;;;;6182520;23;20159;-96
2022/03/15 00:19:04;;;;;;;17.73;8.20;;;12.70;99.90;;;;;;6158604;23;20139;-96
2022/03/15 00:21:54;;;;;;;12.67;7.53;;;12.70;99.90;;;;;;6207677;23;20151;-96
2022/03/15 00:24:30;;;;;;;12.77;7.43;;;12.70;99.90;;;;;;6183202;23;20162;-96
2022/03/15 00:27:34;;;;;;;13.87;7.13;;;12.70;99.90;;;;;;6159151;23;20151;-91
2022/03/15 00:30:48;;;;;;;;;;;;;;;;;;;;;
2022/03/15 00:37:15;;;;;;;10.87;6.40;;;12.60;99.90;;;;;;6181829;23;20209;-96
2022/03/15 00:40:41;;;;;;;12.20;6.17;;;12.60;99.90;;;;;;6183070;23;20148;-90
2022/03/15 00:46:41;;;;;;;11.97;6.87;;;12.70;99.90;;;;;;6184269;23;20136;-93
2022/03/15 00:50:07;;;;;;;11.60;6.73;;;12.50;1.00;;;;;;6158751;23;20162;-95
2022/03/15 00:56:43;;;;;;;13.63;7.13;;;12.60;12.00;;;;;;6180641;23;20170;-96
2022/03/15 01:00:09;;;;;;;15.33;6.67;;;12.30;79.80;;;;;;6160248;23;20162;-96
2022/03/15 01:03:22;;;;;;;12.30;6.57;;;12.60;1.00;;;;;;6179335;23;20147;-96
2022/03/15 01:05:50;;;;;;;10.93;6.20;;;12.60;1.00;;;;;;6200330;23;20149;-83
2022/03/15 01:08:17;;;;;;;11.53;5.83;;;12.60;1.00;;;;;;6189504;22;20253;-76
2022/03/15 01:10:43;;;;;;;12.00;5.80;;;12.50;1.00;;;;;;6182294;23;20135;-81
2022/03/15 01:13:09;;;;;;;10.90;5.80;;;12.60;1.00;;;;;;6181561;23;20165;-80
2022/03/15 01:15:44;;;;;;;11.70;6.30;;;12.60;1.00;;;;;;6205923;23;20450;-77
2022/03/15 01:18:13;;;;;;;10.37;5.90;;;12.60;1.00;;;;;;6189983;23;20153;-82
2022/03/15 01:20:51;;;;;;;16.00;6.27;;;12.50;46.90;;;;;;6189734;23;20141;-83
2022/03/15 01:23:55;;;;;;;14.60;6.60;;;12.60;99.90;;;;;;6161638;23;20571;-83
2022/03/15 01:26:20;;;;;;;12.30;6.60;;;12.50;99.90;;;;;;6188390;23;20137;-84
2022/03/15 01:28:47;;;;;;;15.63;5.90;;;12.50;99.90;;;;;;6187601;23;20221;-84
2022/03/15 01:31:13;;;;;;;13.97;6.20;;;12.50;99.90;;;;;;6188134;23;20579;-82
2022/03/15 01:33:39;;;;;;;11.87;6.30;;;12.40;99.90;;;;;;6187378;23;20200;-81
2022/03/15 01:36:05;;;;;;;11.83;6.60;;;12.40;99.90;;;;;;6161140;23;20165;-84
2022/03/15 01:38:34;;;;;;;15.07;6.50;;;12.40;99.90;;;;;;6188594;23;20470;-82
2022/03/15 01:41:00;;;;;;;10.93;6.27;;;12.40;99.90;;;;;;6187705;23;20141;-82
2022/03/15 01:43:25;;;;;;;13.20;6.63;;;12.60;99.90;;;;;;6187679;23;20142;-83
2022/03/15 01:45:53;;;;;;;10.83;5.63;;;12.50;99.90;;;;;;6187351;23;20176;-84
2022/03/15 01:48:20;;;;;;;12.47;6.27;;;12.60;1.00;;;;;;6187556;23;20140;-80
2022/03/15 01:50:46;;;;;;;13.47;5.80;;;12.60;1.00;;;;;;6187390;23;20135;-80
2022/03/15 01:53:14;;;;;;;9.20;5.67;;;12.60;1.00;;;;;;6187482;23;20217;-82
2022/03/15 01:55:40;;;;;;;11.43;5.63;;;12.50;6.80;;;;;;6187172;23;20562;-82
2022/03/15 01:58:06;;;;;;;9.80;4.97;;;12.40;99.90;;;;;;6187358;23;20138;-82
2022/03/15 02:00:32;;;;;;;9.43;5.37;;;12.40;99.90;;;;;;6187352;23;20222;-84
2022/03/15 02:02:58;;;;;;;11.87;5.07;;;12.30;99.90;;;;;;6187640;23;20574;-83
2022/03/15 02:05:24;;;;;;;9.50;4.93;;;12.30;99.90;;;;;;6187720;23;20460;-84
2022/03/15 02:07:49;;;;;;;9.63;4.77;;;12.30;99.90;;;;;;6187095;23;20185;-78
2022/03/15 02:10:15;;;;;;;8.40;4.67;;;12.40;99.90;;;;;;6187569;23;20167;-83
2022/03/15 02:12:41;;;;;;;10.57;4.83;;;12.40;99.90;;;;;;6187321;23;20193;-84
2022/03/15 02:15:08;;;;;;;8.20;4.73;;;12.40;73.50;;;;;;6187499;23;20606;-84
2022/03/15 02:17:34;;;;;;;8.53;4.70;;;12.40;13.50;;;;;;6187193;23;20561;-83
2022/03/15 02:20:05;;;;;;;10.67;4.40;;;12.40;29.40;;;;;;6187281;23;20138;-84
2022/03/15 02:22:31;;;;;;;7.00;4.67;;;12.40;2.40;;;;;;6160997;23;20151;-83
2022/03/15 02:24:56;;;;;;;9.67;4.37;;;12.30;23.70;;;;;;6187327;23;20144;-84
2022/03/15 02:27:23;;;;;;;9.17;4.40;;;12.30;14.00;;;;;;6187279;23;20138;-83
2022/03/15 02:29:50;;;;;;;11.50;4.40;;;12.30;1.00;;;;;;6187135;23;20200;-83
2022/03/15 02:32:16;;;;;;;7.13;3.90;;;12.20;1.00;;;;;;6186968;23;20138;-79
2022/03/15 02:34:41;;;;;;;8.80;3.47;;;12.10;1.00;;;;;;6187521;23;20181;-78
2022/03/15 02:37:07;;;;;;;9.20;3.73;;;12.10;1.00;;;;;;6186779;23;20153;-76
2022/03/15 02:39:32;;;;;;;9.83;3.70;;;12.20;1.00;;;;;;6187415;23;20156;-84
2022/03/15 02:41:58;;;;;;;7.47;3.70;;;12.20;1.00;;;;;;6187758;23;20134;-82
2022/03/15 02:44:24;;;;;;;10.57;3.50;;;12.30;1.00;;;;;;6187371;23;20582;-83
2022/03/15 02:46:50;;;;;;;12.23;3.90;;;12.30;1.00;;;;;;6186988;23;20142;-83
2022/03/15 02:49:16;;;;;;;8.53;3.50;;;12.10;1.00;;;;;;6187043;23;20130;-83
2022/03/15 02:51:42;;;;;;;7.77;3.53;;;12.00;1.00;;;;;;6187394;23;20197;-83
2022/03/15 02:54:11;;;;;;;10.43;3.60;;;12.10;1.00;;;;;;6187271;23;20515;-77
2022/03/15 02:56:42;;;;;;;7.50;3.60;;;11.90;1.00;;;;;;6187409;23;20201;-84
2022/03/15 02:59:08;;;;;;;10.27;3.97;;;12.00;1.00;;;;;;6187181;23;20140;-80
2022/03/15 03:01:34;;;;;;;7.00;3.60;;;12.00;1.00;;;;;;6187649;23;20134;-82
2022/03/15 03:04:00;;;;;;;7.43;3.70;;;12.20;1.00;;;;;;6203398;23;20153;-76
2022/03/15 03:06:25;;;;;;;7.97;3.63;;;12.10;1.00;;;;;;6193383;23;20214;-83
2022/03/15 03:08:52;;;;;;;8.60;3.67;;;12.20;1.00;;;;;;6186845;23;20162;-82
2022/03/15 03:11:18;;;;;;;6.63;3.57;;;12.10;1.00;;;;;;6190410;23;20490;-84
2022/03/15 03:13:44;;;;;;;6.23;3.27;;;12.10;1.00;;;;;;6189507;23;20158;-78
2022/03/15 03:16:13;;;;;;;8.20;3.50;;;12.00;1.00;;;;;;6192180;23;20138;-82
2022/03/15 03:18:39;;;;;;;9.43;3.40;;;12.10;1.00;;;;;;6186689;23;20184;-81
2022/03/15 03:21:05;;;;;;;9.47;3.47;;;12.10;1.00;;;;;;6186482;23;20533;-84
2022/03/15 03:23:34;;;;;;;8.30;3.87;;;12.10;1.00;;;;;;6186933;23;20138;-84
2022/03/15 03:26:01;;;;;;;8.13;3.93;;;12.10;1.00;;;;;;6186299;23;20142;-77
2022/03/15 03:28:33;;;;;;;9.17;4.13;;;12.10;1.00;;;;;;6187099;23;20134;-83
2022/03/15 03:31:00;;;;;;;8.50;3.43;;;12.20;1.00;;;;;;6186680;23;20135;-84
2022/03/15 03:33:26;;;;;;;9.07;4.07;;;12.10;1.00;;;;;;6187556;23;20482;-84
2022/03/15 03:35:52;;;;;;;8.23;3.23;;;11.90;1.00;;;;;;6186610;23;20488;-83
2022/03/15 03:38:18;;;;;;;7.43;3.37;;;11.90;1.00;;;;;;6186561;23;20139;-83
2022/03/15 03:40:44;;;;;;;5.83;3.50;;;11.80;32.20;;;;;;6186977;23;20626;-84
2022/03/15 03:43:09;;;;;;;7.73;3.30;;;11.90;5.20;;;;;;6186160;23;20141;-82
2022/03/15 03:45:36;;;;;;;9.70;3.63;;;11.90;1.00;;;;;;6187203;23;20470;-83
2022/03/15 03:48:04;;;;;;;6.67;3.10;;;11.90;1.00;;;;;;6187039;23;20134;-84
2022/03/15 03:50:30;;;;;;;7.87;3.47;;;12.00;1.00;;;;;;6186275;23;20189;-81
2022/03/15 03:52:55;;;;;;;8.13;3.77;;;11.80;1.00;;;;;;6186152;23;20134;-82
2022/03/15 03:55:21;;;;;;;5.63;3.27;;;11.70;1.00;;;;;;6186945;23;20643;-80
2022/03/15 03:57:47;;;;;;;10.00;3.70;;;11.70;99.90;;;;;;6186899;23;20134;-84
2022/03/15 04:00:14;;;;;;;9.23;3.90;;;11.80;1.00;;;;;;6197957;23;20142;-80
2022/03/15 04:02:40;;;;;;;7.10;3.57;;;11.70;99.90;;;;;;6203900;23;20134;-85
2022/03/15 04:05:06;;;;;;;8.27;3.37;;;11.70;99.90;;;;;;6188363;23;20189;-82
2022/03/15 04:07:46;;;;;;;7.40;3.70;;;11.70;51.40;;;;;;6187010;23;20188;-83
2022/03/15 04:10:12;;;;;;;8.43;4.00;;;11.50;99.90;;;;;;6189208;23;20145;-79
2022/03/15 04:12:39;;;;;;;8.80;3.27;;;11.50;99.90;;;;;;6189141;23;20476;-83
2022/03/15 04:15:05;;;;;;;6.80;3.13;;;11.50;99.90;;;;;;6191394;23;20170;-83
2022/03/15 04:17:32;;;;;;;7.77;3.50;;;11.30;1.00;;;;;;6204737;23;20138;-75
2022/03/15 04:19:57;;;;;;;6.67;3.70;;;11.20;99.90;;;;;;6195979;23;20142;-83
2022/03/15 04:22:26;;;;;;;8.43;3.27;;;11.40;1.00;;;;;;6187555;23;20260;-82
2022/03/15 04:24:55;;;;;;;9.53;3.17;;;11.20;1.00;;;;;;6186525;23;20165;-83
2022/03/15 04:27:21;;;;;;;6.57;3.07;;;11.20;21.80;;;;;;6186223;23;20185;-83
2022/03/15 04:29:46;;;;;;;8.73;2.93;;;11.20;48.50;;;;;;6187606;23;20157;-82
2022/03/15 04:32:12;;;;;;;8.50;3.07;;;11.20;1.00;;;;;;6186590;23;20629;-80
2022/03/15 04:34:38;;;;;;;8.67;3.50;;;11.40;1.00;;;;;;6186363;23;20248;-81
2022/03/15 04:37:04;;;;;;;9.10;3.80;;;11.40;1.00;;;;;;6186243;23;20138;-83
2022/03/15 04:39:29;;;;;;;9.27;3.77;;;11.50;1.00;;;;;;6186066;23;20142;-84
2022/03/15 04:41:56;;;;;;;8.80;3.73;;;11.60;1.00;;;;;;6186262;23;20470;-83
2022/03/15 04:44:22;;;;;;;9.43;3.63;;;11.30;1.00;;;;;;6185990;23;20597;-83
2022/03/15 04:46:48;;;;;;;7.40;3.27;;;11.30;71.20;;;;;;6186079;23;20137;-83
2022/03/15 04:49:14;;;;;;;7.93;3.87;;;11.30;99.90;;;;;;6186059;23;20152;-83
2022/03/15 04:51:40;;;;;;;6.10;3.20;;;11.40;8.30;;;;;;6186512;23;20525;-83
2022/03/15 04:54:06;;;;;;;9.63;3.83;;;11.40;1.00;;;;;;6159603;23;20622;-82
2022/03/15 04:56:31;;;;;;;10.73;3.33;;;11.20;1.00;;;;;;6186987;23;20138;-81
2022/03/15 04:58:57;;;;;;;7.43;3.63;;;11.30;1.00;;;;;;6186657;23;20189;-75
2022/03/15 05:01:23;;;;;;;8.60;3.33;;;11.00;99.90;;;;;;6186290;23;20144;-85
2022/03/15 05:03:49;;;;;;;6.13;2.90;;;11.10;1.00;;;;;;6186647;23;20162;-84
2022/03/15 05:06:14;;;;;;;5.37;3.30;;;11.20;95.30;;;;;;6159640;23;20621;-84
2022/03/15 05:08:40;;;;;;;7.27;3.07;;;11.10;1.00;;;;;;6159508;23;20153;-83
2022/03/15 05:11:06;;;;;;;6.57;3.20;;;11.20;99.90;;;;;;6187452;23;20146;-81
2022/03/15 05:13:50;;;;;;;7.00;3.07;;;11.20;79.40;;;;;;6185982;23;20177;-78
2022/03/15 05:16:18;;;;;;;8.43;3.80;;;11.30;1.00;;;;;;6186402;23;20144;-84
2022/03/15 05:18:51;;;;;;;6.27;3.23;;;11.10;28.70;;;;;;6191280;23;20136;-84
2022/03/15 05:21:16;;;;;;;7.83;3.37;;;11.10;99.90;;;;;;6188027;23;20885;-81
2022/03/15 05:23:45;;;;;;;6.73;2.90;;;11.30;99.90;;;;;;6190314;23;20144;-76
2022/03/15 05:26:11;;;;;;;7.23;3.40;;;11.40;1.00;;;;;;6188749;23;20142;-83
2022/03/15 05:28:37;;;;;;;6.90;3.40;;;11.40;1.00;;;;;;6187708;23;20597;-83
2022/03/15 05:31:04;;;;;;;6.60;3.30;;;11.40;1.00;;;;;;6188100;23;20142;-83
2022/03/15 05:33:31;;;;;;;8.27;3.67;;;11.40;1.00;;;;;;6188343;23;20224;-77
2022/03/15 05:35:57;;;;;;;8.43;3.67;;;11.50;1.00;;;;;;6186372;23;20472;-78
2022/03/15 05:38:24;;;;;;;9.37;3.30;;;11.50;1.00;;;;;;6159016;23;20150;-81
2022/03/15 05:40:49;;;;;;;7.20;3.30;;;11.40;1.00;;;;;;6188187;23;20142;-81
2022/03/15 05:43:15;;;;;;;10.73;3.50;;;11.60;1.00;;;;;;6189334;23;20134;-78
2022/03/15 05:45:41;;;;;;;7.53;3.53;;;11.40;1.00;;;;;;6188750;23;20142;-81
2022/03/15 05:48:08;;;;;;;8.10;3.70;;;11.40;1.00;;;;;;6192711;23;20162;-78
2022/03/15 05:50:34;;;;;;;35.43;8.33;;;11.40;1.00;;;;;;6200362;23;20149;-76
2022/03/15 05:53:04;;;;;;;13.30;4.33;;;11.50;1.00;;;;;;6209620;23;20158;-82
2022/03/15 05:55:31;;;;;;;13.70;3.60;;;11.50;1.00;;;;;;6206987;23;20177;-77
2022/03/15 05:57:57;;;;;;;6.93;3.27;;;11.60;99.90;;;;;;6203122;23;20135;-83
2022/03/15 06:00:23;;;;;;;6.27;3.30;;;11.70;1.00;;;;;;6194103;23;20144;-78
2022/03/15 06:02:50;;;;;;;10.33;4.33;;;11.60;1.00;;;;;;6193978;23;20138;-83
2022/03/15 06:05:16;;;;;;;6.53;3.73;;;11.60;1.00;;;;;;6191455;23;20482;-80
2022/03/15 06:07:50;;;;;;;9.00;3.37;;;11.70;99.90;;;;;;6188625;23;20185;-83
2022/03/15 06:10:17;;;;;;;9.10;4.00;;;11.60;1.00;;;;;;6188328;23;20578;-83
2022/03/15 06:12:47;;;;;;;8.17;3.37;;;11.70;1.00;;;;;;6188654;23;20138;-82
2022/03/15 06:15:13;;;;;;;8.93;3.27;;;11.70;1.00;;;;;;6199048;23;20170;-76
2022/03/15 06:17:56;;;;;;;8.67;3.23;;;11.70;1.00;;;;;;6198444;23;20157;-83
2022/03/15 06:20:29;;;;;;;8.33;3.40;;;11.70;99.90;;;;;;6190780;23;20142;-78
2022/03/15 06:22:54;;;;;;;9.53;3.60;;;11.80;1.00;;;;;;6188219;23;20145;-81
2022/03/15 06:25:22;;;;;;;7.20;3.63;;;11.70;1.00;;;;;;6188261;23;20142;-81
2022/03/15 06:27:49;;;;;;;8.57;3.73;;;11.70;1.00;;;;;;6190128;23;20142;-85
2022/03/15 06:30:16;;;;;;;8.87;4.43;;;11.70;1.00;;;;;;6198288;23;20138;-78
2022/03/15 06:32:43;;;;;;;9.17;4.27;;;11.70;1.00;;;;;;6207089;23;20123;-77
2022/03/15 06:35:10;;;;;;;13.30;4.40;;;11.60;1.00;;;;;;6210935;22;20276;-80
2022/03/15 06:37:47;;;;;;;10.53;3.50;;;11.60;1.00;;;;;;6209445;23;20169;-84
2022/03/15 06:40:16;;;;;;;9.10;3.63;;;11.30;99.90;;;;;;6183964;23;20237;-79
2022/03/15 06:42:42;;;;;;;7.50;3.93;;;11.10;1.00;;;;;;6205271;23;20157;-82
2022/03/15 06:45:15;;;;;;;9.03;3.63;;;11.20;1.00;;;;;;6195119;23;20130;-77
2022/03/15 06:47:44;;;;;;;9.50;3.80;;;11.40;33.50;;;;;;6194843;23;20136;-84
2022/03/15 06:50:12;;;;;;;8.80;3.80;;;11.50;1.00;;;;;;6199891;23;20159;-79
2022/03/15 06:52:50;;;;;;;8.63;3.80;;;11.40;1.00;;;;;;6200426;23;20138;-76
2022/03/15 06:55:16;;;;;;;16.97;5.23;;;11.50;1.00;;;;;;6175086;23;20618;-77
2022/03/15 06:57:42;;;;;;;14.57;4.50;;;11.50;1.00;;;;;;6197965;23;20138;-79
2022/03/15 07:00:13;;;;;;;10.00;4.53;;;11.50;1.00;;;;;;6199762;23;20142;-76
2022/03/15 07:02:39;;;;;;;10.07;4.03;;;11.60;1.00;;;;;;6200533;23;20130;-76
2022/03/15 07:05:06;;;;;;;7.93;4.10;;;11.80;99.90;;;;;;6201561;23;20146;-76
2022/03/15 07:07:32;;;;;;;10.30;4.23;;;11.80;1.00;;;;;;6193490;23;20185;-77
2022/03/15 07:10:09;;;;;;;11.20;3.90;;;11.80;1.00;;;;;;6195028;23;20134;-78
2022/03/15 07:12:43;;;;;;;12.47;4.20;;;11.70;99.90;;;;;;6196368;23;20137;-78
2022/03/15 07:15:11;;;;;;;9.97;4.73;;;11.50;1.00;;;;;;6193254;23;20173;-83
2022/03/15 07:17:57;;;;;;;13.53;5.40;;;11.30;99.90;;;;;;6190441;23;20157;-91
2022/03/15 07:20:27;;;;;;;8.93;4.27;;;11.10;1.00;;;;;;6190177;23;20559;-80
2022/03/15 07:22:55;;;;;;;8.50;3.90;;;11.10;1.00;;;;;;6193173;23;20160;-85
2022/03/15 07:25:21;;;;;;;10.53;4.57;;;11.10;1.00;;;;;;6194414;23;20134;-85
2022/03/15 07:27:48;;;;;;;15.17;5.53;;;11.10;1.00;;;;;;6192793;23;20142;-84
2022/03/15 07:30:13;;;;;;;11.07;4.40;;;11.20;99.90;;;;;;6193016;23;20557;-85
2022/03/15 07:32:39;;;;;;;9.53;4.47;;;11.20;1.00;;;;;;6192876;23;20141;-85
2022/03/15 07:35:06;;;;;;;13.17;5.57;;;11.10;1.00;;;;;;6190022;23;20185;-83
2022/03/15 07:37:46;;;;;;;9.40;4.20;;;11.10;99.90;;;;;;6190803;23;20149;-87
2022/03/15 07:40:16;;;;;;;12.20;4.27;;;11.30;99.90;;;;;;6198436;23;20217;-82
2022/03/15 07:42:41;;;;;;;8.40;4.50;;;11.20;1.00;;;;;;6205116;23;20165;-77
2022/03/15 07:45:08;;;;;;;6.33;3.80;;;11.30;99.90;;;;;;6204757;23;20134;-86
2022/03/15 07:47:34;;;;;;;11.13;4.30;;;11.50;99.90;;;;;;6197528;23;20197;-88
2022/03/15 07:50:00;;;;;;;8.43;3.70;;;11.50;1.00;;;;;;6196446;23;20134;-85
2022/03/15 07:52:26;;;;;;;7.83;3.47;;;11.60;99.90;;;;;;6196093;23;20153;-79
2022/03/15 07:54:52;;;;;;;9.67;3.30;;;11.60;1.00;;;;;;6189417;23;20176;-87
2022/03/15 07:57:19;;;;;;;9.37;3.90;;;11.70;99.90;;;;;;6189259;23;20138;-88
2022/03/15 07:59:46;;;;;;;14.50;4.43;;;11.80;1.00;;;;;;6162460;23;20484;-88
2022/03/15 08:02:14;;;;;;;11.63;4.10;;;11.90;1.00;;;;;;6188549;23;20209;-85
2022/03/15 08:04:39;;;;;;;8.30;3.37;;;11.90;1.00;;;;;;6188453;23;20138;-89
2022/03/15 08:07:05;;;;;;;8.57;3.87;;;12.10;1.00;;;;;;6162117;23;20252;-80
2022/03/15 08:09:30;;;;;;;11.43;3.73;;;12.20;99.90;;;;;;6188339;23;20138;-88
2022/03/15 08:11:56;;;;;;;9.07;3.47;;;12.20;99.90;;;;;;6189090;23;20583;-87
2022/03/15 08:14:22;;;;;;;13.80;3.60;;;12.30;1.00;;;;;;6190741;23;20587;-82
2022/03/15 08:16:50;;;;;;;14.20;4.00;;;12.30;1.00;;;;;;6189094;23;20157;-87
2022/03/15 08:19:15;;;;;;;30.27;7.53;;;12.30;1.00;;;;;;6188570;23;20461;-85
2022/03/15 08:21:41;;;;;;;11.20;4.47;;;12.30;1.00;;;;;;6188717;23;20148;-89
2022/03/15 08:24:07;;;;;;;9.07;3.80;;;12.20;99.90;;;;;;6188712;23;20138;-86
2022/03/15 08:26:33;;;;;;;10.83;3.93;;;12.30;99.90;;;;;;6190887;23;20180;-79
2022/03/15 08:28:58;;;;;;;12.87;4.07;;;12.40;30.40;;;;;;6188983;23;20626;-87
2022/03/15 08:31:24;;;;;;;12.33;4.17;;;12.30;99.90;;;;;;6190205;23;20157;-87
2022/03/15 08:33:50;;;;;;;8.60;3.63;;;12.50;1.00;;;;;;6190108;23;20188;-85
2022/03/15 08:36:15;;;;;;;8.90;3.60;;;12.30;99.90;;;;;;6190707;23;20232;-87
2022/03/15 08:38:41;;;;;;;10.87;3.90;;;12.30;1.00;;;;;;6201585;23;20209;-79
2022/03/15 08:41:08;;;;;;;9.50;4.00;;;12.30;1.00;;;;;;6212943;23;20207;-82
2022/03/15 08:43:35;;;;;;;6.63;3.63;;;12.40;1.00;;;;;;6209311;22;20221;-77
2022/03/15 08:46:06;;;;;;;13.10;4.00;;;12.30;99.90;;;;;;6204365;23;20571;-80
2022/03/15 08:48:34;;;;;;;8.90;3.77;;;12.40;1.00;;;;;;6201184;23;20142;-84
2022/03/15 08:51:00;;;;;;;11.27;3.47;;;12.30;1.00;;;;;;6168658;23;20192;-81
2022/03/15 08:53:32;;;;;;;12.07;3.67;;;12.50;1.00;;;;;;6195846;23;20668;-83
2022/03/15 08:55:58;;;;;;;8.63;4.00;;;12.40;1.00;;;;;;6193664;23;20137;-87
2022/03/15 08:58:24;;;;;;;10.33;3.97;;;12.50;1.00;;;;;;6209301;23;20140;-82
2022/03/15 09:00:50;;;;;;;11.37;3.57;;;12.40;99.90;;;;;;6209775;23;20142;-84
2022/03/15 09:03:19;;;;;;;14.33;3.77;;;12.30;1.00;;;;;;6205708;23;20169;-87
2022/03/15 09:05:45;;;;;;;9.20;3.70;;;12.30;1.00;;;;;;6162698;23;20197;-77
2022/03/15 09:08:10;;;;;;;11.10;3.70;;;12.30;1.00;;;;;;6161364;23;20590;-89
2022/03/15 09:10:37;;;;;;;9.90;3.73;;;12.30;1.00;;;;;;6187572;23;20142;-86
2022/03/15 09:13:03;;;;;;;7.73;4.13;;;12.40;99.90;;;;;;6188570;23;20142;-88
2022/03/15 09:15:30;;;;;;;10.23;3.67;;;12.40;1.00;;;;;;6188911;23;20170;-81
2022/03/15 09:17:57;;;;;;;7.53;3.50;;;12.20;99.90;;;;;;6188059;23;20157;-87
2022/03/15 09:20:25;;;;;;;11.17;3.83;;;12.50;99.90;;;;;;6187983;23;20135;-88
2022/03/15 09:22:51;;;;;;;9.97;3.90;;;12.10;1.00;;;;;;6187722;23;20138;-86
2022/03/15 09:25:17;;;;;;;11.13;3.80;;;12.20;99.90;;;;;;6187578;23;20174;-88
2022/03/15 09:27:43;;;;;;;7.23;3.70;;;11.80;99.90;;;;;;6188188;23;20154;-87
2022/03/15 09:30:11;;;;;;;6.60;3.67;;;11.70;98.80;;;;;;6195090;23;20134;-88
2022/03/15 09:32:36;;;;;;;7.13;3.00;;;11.60;99.90;;;;;;6193331;23;20145;-87
2022/03/15 09:35:02;;;;;;;6.90;3.00;;;11.60;99.90;;;;;;6190338;23;20216;-86
2022/03/15 09:37:28;;;;;;;5.43;3.27;;;11.80;99.90;;;;;;6188325;23;20153;-85
2022/03/15 09:39:59;;;;;;;5.80;3.47;;;11.70;99.90;;;;;;6191647;23;20144;-85
2022/03/15 09:42:28;;;;;;;9.37;3.57;;;11.60;99.90;;;;;;6191134;23;20138;-88
2022/03/15 09:44:57;;;;;;;7.43;3.60;;;11.50;99.90;;;;;;6192820;23;20153;-78
2022/03/15 09:47:31;;;;;;;8.87;3.50;;;11.80;99.90;;;;;;6190736;23;20142;-85
2022/03/15 09:50:00;;;;;;;11.70;3.57;;;11.90;99.90;;;;;;6189406;23;20470;-80
2022/03/15 09:52:27;;;;;;;9.40;3.70;;;11.90;99.90;;;;;;6190099;23;20138;-89
2022/03/15 09:54:55;;;;;;;8.80;3.53;;;12.10;99.90;;;;;;6189565;23;20188;-83
2022/03/15 09:57:21;;;;;;;7.20;3.20;;;12.20;99.90;;;;;;6191326;23;20134;-87
2022/03/15 09:59:50;;;;;;;5.33;3.00;;;12.20;99.90;;;;;;6189671;23;20180;-87
2022/03/15 10:02:16;;;;;;;6.60;3.10;;;12.30;99.90;;;;;;6190465;23;20135;-89
2022/03/15 10:04:42;;;;;;;7.00;3.13;;;12.40;99.90;;;;;;6190586;23;20202;-76
2022/03/15 10:07:08;;;;;;;11.77;3.50;;;12.50;2.90;;;;;;6194506;23;20193;-82
2022/03/15 10:09:37;;;;;;;6.47;3.60;;;12.70;1.00;;;;;;6192739;23;20138;-89
2022/03/15 10:12:03;;;;;;;11.23;3.43;;;12.70;1.00;;;;;;6193897;23;20135;-84
2022/03/15 10:14:41;;;;;;;6.23;2.87;;;12.90;90.00;;;;;;6197665;23;20224;-87
2022/03/15 10:17:08;;;;;;;11.03;3.03;;;13.00;1.00;;;;;;6201149;23;20225;-83
2022/03/15 10:19:34;;;;;;;7.37;2.97;;;12.90;1.00;;;;;;6196304;23;20141;-76
2022/03/15 10:22:02;;;;;;;11.00;3.30;;;13.00;1.00;;;;;;6191960;23;20512;-84
2022/03/15 10:24:29;;;;;;;10.57;3.67;;;13.20;1.00;;;;;;6191065;23;20141;-87
2022/03/15 10:27:01;;;;;;;9.13;3.20;;;13.20;1.00;;;;;;6193867;23;20555;-88
2022/03/15 10:29:29;;;;;;;7.57;2.70;;;13.30;99.90;;;;;;6169926;23;20548;-87
2022/03/15 10:31:54;;;;;;;8.00;3.43;;;13.10;99.90;;;;;;6191854;23;20434;-83
2022/03/15 10:34:25;;;;;;;8.83;3.10;;;13.10;1.00;;;;;;6191535;23;20201;-83
2022/03/15 10:36:54;;;;;;;12.50;3.43;;;13.20;1.00;;;;;;6191634;23;20150;-87
2022/03/15 10:39:21;;;;;;;11.90;3.17;;;13.30;99.90;;;;;;6193334;23;20134;-85
2022/03/15 10:41:52;;;;;;;8.67;3.03;;;13.30;1.00;;;;;;6192059;23;20138;-92
2022/03/15 10:44:20;;;;;;;7.23;2.87;;;13.20;1.00;;;;;;6193593;23;20193;-80
2022/03/15 10:46:59;;;;;;;5.27;3.00;;;13.20;1.00;;;;;;6192794;23;20146;-87
2022/03/15 10:49:26;;;;;;;5.87;3.07;;;13.40;1.00;;;;;;6192396;23;20254;-86
2022/03/15 10:51:54;;;;;;;4.97;2.53;;;13.30;99.90;;;;;;6171531;23;20167;-79
2022/03/15 10:54:27;;;;;;;4.90;2.47;;;13.30;99.90;;;;;;6175310;23;20158;-86
2022/03/15 10:56:59;;;;;;;4.57;2.47;;;13.50;99.90;;;;;;6168835;23;20143;-85
2022/03/15 10:59:27;;;;;;;5.60;2.37;;;13.60;99.90;;;;;;6199518;23;20514;-84
2022/03/15 11:01:54;;;;;;;8.40;2.40;;;13.70;99.90;;;;;;6202668;23;20171;-81
2022/03/15 11:04:20;;;;;;;6.53;2.30;;;13.70;99.90;;;;;;6210573;23;20155;-86
2022/03/15 11:06:51;;;;;;;4.50;2.60;;;13.80;1.00;;;;;;6178973;23;20245;-86
2022/03/15 11:09:32;;;;;;;7.83;2.93;;;13.90;1.00;;;;;;6192062;23;20136;-90
2022/03/15 11:12:06;;;;;;;5.10;1.70;;;13.70;1.00;;;;;;6193674;23;20209;-89
2022/03/15 11:14:42;;;;;;;3.27;1.60;;;13.80;97.10;;;;;;6197372;23;20203;-81
2022/03/15 11:17:18;;;;;;;4.30;2.10;;;13.60;1.00;;;;;;6200109;23;20130;-82
2022/03/15 11:19:55;;;;;;;3.10;1.23;;;13.60;99.90;;;;;;6211334;22;20207;-77
2022/03/15 11:22:31;;;;;;;3.47;1.10;;;13.70;1.00;;;;;;6211399;23;20118;-82
2022/03/15 11:28:30;;;;;;;2.13;1.17;;;14.00;19.50;;;;;;6191714;23;20223;-84
2022/03/15 11:30:58;;;;;;;2.97;1.20;;;14.40;1.00;;;;;;6163017;23;20225;-84
2022/03/15 11:33:27;;;;;;;17.10;2.47;;;14.60;99.90;;;;;;6188423;23;20507;-88
2022/03/15 11:35:53;;;;;;;4.43;1.20;;;14.50;99.90;;;;;;6189485;23;20232;-80
2022/03/15 11:38:20;;;;;;;3.40;1.10;;;14.50;99.90;;;;;;6163511;23;20721;-91
2022/03/15 11:40:47;;;;;;;1.50;0.83;;;14.50;99.90;;;;;;6190319;23;20140;-88
2022/03/15 11:43:50;;;;;;;3.77;1.33;;;14.50;99.90;;;;;;6189298;23;20435;-88
2022/03/15 11:46:35;;;;;;;1.50;0.70;;;14.70;1.00;;;;;;6189089;23;20214;-88
2022/03/15 11:49:19;;;;;;;4.10;1.03;;;14.70;1.00;;;;;;6189289;23;20134;-87
2022/03/15 11:52:26;;;;;;;4.20;1.20;;;14.70;1.00;;;;;;6188312;23;20207;-88
2022/03/15 11:55:15;;;;;;;3.33;0.90;;;14.70;1.00;;;;;;6162402;23;20584;-87
2022/03/15 11:57:51;;;;;;;2.00;0.80;;;14.60;1.00;;;;;;6189042;23;20133;-87
2022/03/15 12:00:31;;;;;;;3.07;0.97;;;14.40;1.00;;;;;;6190471;23;20148;-86
2022/03/15 12:03:01;;;;;;;8.13;1.70;;;14.20;99.90;;;;;;6192539;23;20206;-89
2022/03/15 12:05:27;;;;;;;3.57;0.87;;;14.20;1.00;;;;;;6190209;23;20601;-80
2022/03/15 12:08:12;;;;;;;2.33;1.20;;;14.30;99.90;;;;;;6190534;23;20143;-87
2022/03/15 12:10:42;;;;;;;3.33;1.07;;;14.10;99.90;;;;;;6191771;23;20158;-86
2022/03/15 12:13:10;;;;;;;2.00;1.10;;;14.00;1.00;;;;;;6191786;23;20132;-83
2022/03/15 12:15:39;;;;;;;1.77;0.90;;;13.70;5.50;;;;;;6192078;23;20173;-77
2022/03/15 12:21:26;;;;;;;1.90;1.07;;;13.30;1.00;;;;;;6213902;23;20146;-75
2022/03/15 12:23:54;;;;;;;5.00;1.47;;;13.30;99.90;;;;;;6145283;23;20212;-76
2022/03/15 12:26:28;;;;;;;2.67;1.00;;;13.30;1.00;;;;;;6208846;23;20150;-83
2022/03/15 12:29:16;;;;;;;1.47;1.03;;;13.20;1.00;;;;;;6206313;23;20125;-78
2022/03/15 12:31:48;;;;;;;1.80;0.90;;;13.10;25.20;;;;;;6208806;23;20135;-77
2022/03/15 12:34:20;;;;;;;2.03;0.97;;;13.00;1.00;;;;;;6206067;23;20185;-74
2022/03/15 12:37:06;;;;;;;4.13;2.23;;;12.90;1.00;;;;;;6206366;23;20154;-75
2022/03/15 12:40:12;;;;;;;8.37;4.67;;;12.90;99.90;;;;;;6204234;23;20142;-77
2022/03/15 12:43:16;;;;;;;8.10;4.40;;;12.70;99.90;;;;;;6200735;23;20134;-81
2022/03/15 12:46:08;;;;;;;8.23;5.10;;;12.60;1.00;;;;;;6199598;23;20137;-75
2022/03/15 12:48:36;;;;;;;8.00;5.10;;;12.70;99.90;;;;;;6169600;23;20150;-76
2022/03/15 12:51:16;;;;;;;11.03;5.83;;;12.70;1.00;;;;;;6189223;23;20134;-81
2022/03/15 12:53:48;;;;;;;10.50;4.30;;;13.20;1.00;;;;;;6189709;23;20193;-79
2022/03/15 12:56:21;;;;;;;8.40;4.50;;;13.20;1.00;;;;;;6163856;23;20180;-89
2022/03/15 12:58:51;;;;;;;4.20;2.70;;;12.90;58.90;;;;;;6191253;23;20220;-88
2022/03/15 13:01:17;;;;;;;11.03;4.83;;;13.10;58.60;;;;;;6193594;23;20463;-86
2022/03/15 13:03:44;;;;;;;9.20;4.90;;;13.30;99.90;;;;;;6190547;23;20157;-78
2022/03/15 13:06:21;;;;;;;7.83;4.70;;;13.20;1.00;;;;;;6189984;23;20181;-87
2022/03/15 13:08:57;;;;;;;9.50;4.80;;;13.30;99.90;;;;;;6192167;23;20447;-84
2022/03/15 13:11:26;;;;;;;7.37;4.67;;;13.50;99.90;;;;;;6164746;23;20566;-84
2022/03/15 13:13:54;;;;;;;11.33;4.70;;;13.70;1.00;;;;;;6164224;23;20179;-89
2022/03/15 13:16:23;;;;;;;7.50;4.90;;;13.70;99.90;;;;;;6195907;23;20546;-89
2022/03/15 13:18:49;;;;;;;11.80;5.07;;;13.50;19.00;;;;;;6168445;23;20148;-87
2022/03/15 13:21:15;;;;;;;14.77;4.97;;;13.30;99.90;;;;;;6191103;23;20638;-87
2022/03/15 13:23:50;;;;;;;8.40;4.87;;;13.30;99.90;;;;;;6189774;23;20139;-78